sensor_id;sensor_type;location;lat;lon;timestamp;temperature;humidity
15481;DHT22;7842;50.904;6.670;2023-04-25T00:08:40;8.00;99.90
15481;DHT22;7842;50.904;6.670;2023-04-25T00:15:58;7.80;99.90
15481;DHT22;7842;50.904;6.670;2023-04-25T00:18:25;7.80;99.90
15481;DHT22;7842;50.904;6.670;2023-04-25T00:20:54;7.70;99.90
15481;DHT22;7842;50.904;6.670;2023-04-25T00:23:21;7.60;99.90
15481;DHT22;7842;50.904;6.670;2023-04-25T00:25:50;7.60;99.90
15481;DHT22;7842;50.904;6.670;2023-04-25T00:28:16;7.50;99.90
15481;DHT22;7842;50.904;6.670;2023-04-25T00:30:42;7.60;99.90
15481;DHT22;7842;50.904;6.670;2023-04-25T00:33:08;7.60;99.90
15481;DHT22;7842;50.904;6.670;2023-04-25T00:35:34;7.60;99.90
15481;DHT22;7842;50.904;6.670;2023-04-25T00:38:00;7.50;99.90
15481;DHT22;7842;50.904;6.670;2023-04-25T00:40:26;7.50;99.90
15481;DHT22;7842;50.904;6.670;2023-04-25T00:42:54;7.40;99.90
15481;DHT22;7842;50.904;6.670;2023-04-25T00:45:27;7.80;99.90
15481;DHT22;7842;50.904;6.670;2023-04-25T00:47:54;7.40;99.90
15481;DHT22;7842;50.904;6.670;2023-04-25T00:50:20;7.40;99.90
15481;DHT22;7842;50.904;6.670;2023-04-25T00:52:45;7.30;99.90
15481;DHT22;7842;50.904;6.670;2023-04-25T00:55:12;7.30;99.90
15481;DHT22;7842;50.904;6.670;2023-04-25T00:57:39;7.30;99.90
15481;DHT22;7842;50.904;6.670;2023-04-25T01:00:06;8.50;99.90
15481;DHT22;7842;50.904;6.670;2023-04-25T01:02:33;7.30;99.90
15481;DHT22;7842;50.904;6.670;2023-04-25T01:04:58;7.30;99.90
15481;DHT22;7842;50.904;6.670;2023-04-25T01:07:25;7.30;99.90
15481;DHT22;7842;50.904;6.670;2023-04-25T01:09:52;7.30;99.90
15481;DHT22;7842;50.904;6.670;2023-04-25T01:12:17;7.30;99.90
15481;DHT22;7842;50.904;6.670;2023-04-25T01:14:43;7.20;99.90
15481;DHT22;7842;50.904;6.670;2023-04-25T01:17:10;7.20;99.90
15481;DHT22;7842;50.904;6.670;2023-04-25T01:19:36;9.30;99.90
15481;DHT22;7842;50.904;6.670;2023-04-25T01:24:29;7.20;99.90
15481;DHT22;7842;50.904;6.670;2023-04-25T01:26:56;7.20;99.90
15481;DHT22;7842;50.904;6.670;2023-04-25T01:29:23;7.20;99.90
15481;DHT22;7842;50.904;6.670;2023-04-25T01:31:49;7.20;99.90
15481;DHT22;7842;50.904;6.670;2023-04-25T01:34:16;7.10;99.90
15481;DHT22;7842;50.904;6.670;2023-04-25T01:36:42;7.20;99.90
15481;DHT22;7842;50.904;6.670;2023-04-25T01:39:07;7.20;99.90
15481;DHT22;7842;50.904;6.670;2023-04-25T01:41:34;7.20;99.90
15481;DHT22;7842;50.904;6.670;2023-04-25T01:44:00;7.20;99.90
15481;DHT22;7842;50.904;6.670;2023-04-25T01:46:32;7.20;99.90
15481;DHT22;7842;50.904;6.670;2023-04-25T01:48:58;7.20;99.90
15481;DHT22;7842;50.904;6.670;2023-04-25T01:51:24;7.20;99.90
15481;DHT22;7842;50.904;6.670;2023-04-25T01:53:50;7.20;99.90
15481;DHT22;7842;50.904;6.670;2023-04-25T01:56:15;7.30;99.90
15481;DHT22;7842;50.904;6.670;2023-04-25T01:58:42;7.30;99.90
15481;DHT22;7842;50.904;6.670;2023-04-25T02:01:08;7.20;99.90
15481;DHT22;7842;50.904;6.670;2023-04-25T02:03:34;7.30;99.90
15481;DHT22;7842;50.904;6.670;2023-04-25T02:06:00;7.20;99.90
15481;DHT22;7842;50.904;6.670;2023-04-25T02:08:25;7.20;99.90
15481;DHT22;7842;50.904;6.670;2023-04-25T02:10:52;7.20;99.90
15481;DHT22;7842;50.904;6.670;2023-04-25T02:13:17;7.20;99.90
15481;DHT22;7842;50.904;6.670;2023-04-25T02:15:43;7.20;99.90
15481;DHT22;7842;50.904;6.670;2023-04-25T02:18:09;7.20;99.90
15481;DHT22;7842;50.904;6.670;2023-04-25T02:20:35;7.20;99.90
15481;DHT22;7842;50.904;6.670;2023-04-25T02:23:02;7.10;99.90
15481;DHT22;7842;50.904;6.670;2023-04-25T02:25:27;7.30;99.90
15481;DHT22;7842;50.904;6.670;2023-04-25T02:27:53;7.20;99.90
15481;DHT22;7842;50.904;6.670;2023-04-25T02:30:19;7.10;99.90
15481;DHT22;7842;50.904;6.670;2023-04-25T02:32:45;7.10;99.90
15481;DHT22;7842;50.904;6.670;2023-04-25T02:35:10;7.30;99.90
15481;DHT22;7842;50.904;6.670;2023-04-25T02:37:37;7.20;99.90
15481;DHT22;7842;50.904;6.670;2023-04-25T02:40:04;7.10;99.90
15481;DHT22;7842;50.904;6.670;2023-04-25T02:42:30;7.10;99.90
15481;DHT22;7842;50.904;6.670;2023-04-25T02:47:21;7.10;99.90
15481;DHT22;7842;50.904;6.670;2023-04-25T02:52:13;7.10;99.90
15481;DHT22;7842;50.904;6.670;2023-04-25T02:54:40;7.30;99.90
15481;DHT22;7842;50.904;6.670;2023-04-25T02:57:06;7.10;99.90
15481;DHT22;7842;50.904;6.670;2023-04-25T02:59:33;7.10;99.90
15481;DHT22;7842;50.904;6.670;2023-04-25T03:01:58;9.80;99.90
15481;DHT22;7842;50.904;6.670;2023-04-25T03:04:24;7.00;99.90
15481;DHT22;7842;50.904;6.670;2023-04-25T03:06:52;7.00;99.90
15481;DHT22;7842;50.904;6.670;2023-04-25T03:09:18;6.90;99.90
15481;DHT22;7842;50.904;6.670;2023-04-25T03:11:45;8.40;99.90
15481;DHT22;7842;50.904;6.670;2023-04-25T03:14:11;6.90;99.90
15481;DHT22;7842;50.904;6.670;2023-04-25T03:16:37;6.90;99.90
15481;DHT22;7842;50.904;6.670;2023-04-25T03:19:05;6.90;99.90
15481;DHT22;7842;50.904;6.670;2023-04-25T03:21:33;6.80;99.90
15481;DHT22;7842;50.904;6.670;2023-04-25T03:24:00;6.50;99.90
15481;DHT22;7842;50.904;6.670;2023-04-25T03:26:25;6.80;99.90
15481;DHT22;7842;50.904;6.670;2023-04-25T03:28:51;6.90;99.90
15481;DHT22;7842;50.904;6.670;2023-04-25T03:31:16;7.80;99.90
15481;DHT22;7842;50.904;6.670;2023-04-25T03:33:42;6.50;99.90
15481;DHT22;7842;50.904;6.670;2023-04-25T03:36:08;6.60;99.90
15481;DHT22;7842;50.904;6.670;2023-04-25T03:38:34;7.50;99.90
15481;DHT22;7842;50.904;6.670;2023-04-25T03:41:00;6.90;99.90
15481;DHT22;7842;50.904;6.670;2023-04-25T03:43:25;9.60;99.90
15481;DHT22;7842;50.904;6.670;2023-04-25T03:45:51;6.80;99.90
15481;DHT22;7842;50.904;6.670;2023-04-25T03:48:17;6.80;99.90
15481;DHT22;7842;50.904;6.670;2023-04-25T03:50:42;6.80;99.90
15481;DHT22;7842;50.904;6.670;2023-04-25T03:53:08;6.90;99.90
15481;DHT22;7842;50.904;6.670;2023-04-25T03:55:33;6.90;99.90
15481;DHT22;7842;50.904;6.670;2023-04-25T03:57:59;6.90;99.90
15481;DHT22;7842;50.904;6.670;2023-04-25T04:00:25;6.90;99.90
15481;DHT22;7842;50.904;6.670;2023-04-25T04:02:51;6.90;99.90
15481;DHT22;7842;50.904;6.670;2023-04-25T04:05:17;6.90;99.90
15481;DHT22;7842;50.904;6.670;2023-04-25T04:07:42;6.90;99.90
15481;DHT22;7842;50.904;6.670;2023-04-25T04:10:11;7.90;99.90
15481;DHT22;7842;50.904;6.670;2023-04-25T04:15:06;6.90;99.90
15481;DHT22;7842;50.904;6.670;2023-04-25T04:17:32;6.90;99.90
15481;DHT22;7842;50.904;6.670;2023-04-25T04:19:58;6.90;99.90
15481;DHT22;7842;50.904;6.670;2023-04-25T04:22:24;6.80;99.90
15481;DHT22;7842;50.904;6.670;2023-04-25T04:24:50;6.90;99.90
15481;DHT22;7842;50.904;6.670;2023-04-25T04:27:17;6.90;99.90
15481;DHT22;7842;50.904;6.670;2023-04-25T04:29:43;6.90;99.90
15481;DHT22;7842;50.904;6.670;2023-04-25T04:32:09;9.40;99.90
15481;DHT22;7842;50.904;6.670;2023-04-25T04:34:35;8.10;99.90
15481;DHT22;7842;50.904;6.670;2023-04-25T04:37:01;6.90;99.90
15481;DHT22;7842;50.904;6.670;2023-04-25T04:39:26;6.90;99.90
15481;DHT22;7842;50.904;6.670;2023-04-25T04:41:52;6.90;99.90
15481;DHT22;7842;50.904;6.670;2023-04-25T04:44:18;6.90;99.90
15481;DHT22;7842;50.904;6.670;2023-04-25T04:46:44;7.00;99.90
15481;DHT22;7842;50.904;6.670;2023-04-25T04:49:10;6.70;99.90
15481;DHT22;7842;50.904;6.670;2023-04-25T04:51:36;6.80;99.90
15481;DHT22;7842;50.904;6.670;2023-04-25T04:54:03;6.80;99.90
15481;DHT22;7842;50.904;6.670;2023-04-25T04:56:29;6.90;99.90
15481;DHT22;7842;50.904;6.670;2023-04-25T04:58:57;6.90;99.90
15481;DHT22;7842;50.904;6.670;2023-04-25T05:01:23;6.90;99.90
15481;DHT22;7842;50.904;6.670;2023-04-25T05:03:49;7.30;99.90
15481;DHT22;7842;50.904;6.670;2023-04-25T05:06:16;7.00;99.90
15481;DHT22;7842;50.904;6.670;2023-04-25T05:08:41;7.00;99.90
15481;DHT22;7842;50.904;6.670;2023-04-25T05:11:07;7.10;99.90
15481;DHT22;7842;50.904;6.670;2023-04-25T05:13:36;7.10;99.90
15481;DHT22;7842;50.904;6.670;2023-04-25T05:16:02;7.10;99.90
15481;DHT22;7842;50.904;6.670;2023-04-25T05:45:23;7.70;99.90
15481;DHT22;7842;50.904;6.670;2023-04-25T05:47:50;7.80;99.90
15481;DHT22;7842;50.904;6.670;2023-04-25T05:50:16;7.80;99.90
15481;DHT22;7842;50.904;6.670;2023-04-25T05:52:42;8.00;99.90
15481;DHT22;7842;50.904;6.670;2023-04-25T05:55:08;7.90;99.90
15481;DHT22;7842;50.904;6.670;2023-04-25T05:57:34;8.00;99.90
15481;DHT22;7842;50.904;6.670;2023-04-25T05:59:59;7.90;99.90
15481;DHT22;7842;50.904;6.670;2023-04-25T06:02:25;8.10;99.90
15481;DHT22;7842;50.904;6.670;2023-04-25T06:04:52;8.00;99.90
15481;DHT22;7842;50.904;6.670;2023-04-25T06:07:21;8.00;99.90
15481;DHT22;7842;50.904;6.670;2023-04-25T06:09:47;8.00;99.90
15481;DHT22;7842;50.904;6.670;2023-04-25T06:12:12;7.90;99.90
15481;DHT22;7842;50.904;6.670;2023-04-25T06:14:38;7.50;99.90
15481;DHT22;7842;50.904;6.670;2023-04-25T06:17:04;7.70;99.90
15481;DHT22;7842;50.904;6.670;2023-04-25T06:19:34;7.80;99.90
15481;DHT22;7842;50.904;6.670;2023-04-25T06:22:01;7.90;99.90
15481;DHT22;7842;50.904;6.670;2023-04-25T06:24:27;7.60;99.90
15481;DHT22;7842;50.904;6.670;2023-04-25T06:26:53;7.70;99.90
15481;DHT22;7842;50.904;6.670;2023-04-25T06:29:18;7.80;99.90
15481;DHT22;7842;50.904;6.670;2023-04-25T06:34:10;7.90;99.90
15481;DHT22;7842;50.904;6.670;2023-04-25T06:39:02;8.10;99.90
15481;DHT22;7842;50.904;6.670;2023-04-25T07:48:06;8.90;99.90
15481;DHT22;7842;50.904;6.670;2023-04-25T07:50:31;8.80;99.90
15481;DHT22;7842;50.904;6.670;2023-04-25T08:56:40;9.80;99.90
15481;DHT22;7842;50.904;6.670;2023-04-25T09:27:11;10.10;99.90
15481;DHT22;7842;50.904;6.670;2023-04-25T09:29:39;10.00;99.90
15481;DHT22;7842;50.904;6.670;2023-04-25T09:32:21;9.80;99.90
15481;DHT22;7842;50.904;6.670;2023-04-25T09:34:55;9.70;99.90
15481;DHT22;7842;50.904;6.670;2023-04-25T09:37:28;9.60;99.90
15481;DHT22;7842;50.904;6.670;2023-04-25T09:39:58;9.70;99.90
15481;DHT22;7842;50.904;6.670;2023-04-25T09:42:28;9.80;99.90
15481;DHT22;7842;50.904;6.670;2023-04-25T09:47:24;10.10;99.90
15481;DHT22;7842;50.904;6.670;2023-04-25T09:49:51;10.40;99.90
15481;DHT22;7842;50.904;6.670;2023-04-25T10:12:32;10.20;99.90
15481;DHT22;7842;50.904;6.670;2023-04-25T10:14:59;10.30;99.90
15481;DHT22;7842;50.904;6.670;2023-04-25T10:24:55;10.90;99.90
15481;DHT22;7842;50.904;6.670;2023-04-25T10:39:46;11.20;99.90
15481;DHT22;7842;50.904;6.670;2023-04-25T10:42:12;11.10;99.90
15481;DHT22;7842;50.904;6.670;2023-04-25T10:49:36;10.80;99.90
15481;DHT22;7842;50.904;6.670;2023-04-25T10:54:55;10.50;99.90
15481;DHT22;7842;50.904;6.670;2023-04-25T11:22:41;11.20;99.90
15481;DHT22;7842;50.904;6.670;2023-04-25T11:25:10;11.00;99.90
15481;DHT22;7842;50.904;6.670;2023-04-25T11:28:01;11.00;99.90
15481;DHT22;7842;50.904;6.670;2023-04-25T11:35:31;10.80;99.90
15481;DHT22;7842;50.904;6.670;2023-04-25T11:45:24;11.00;99.90
15481;DHT22;7842;50.904;6.670;2023-04-25T11:55:22;11.40;99.90
15481;DHT22;7842;50.904;6.670;2023-04-25T11:57:49;11.40;99.90
15481;DHT22;7842;50.904;6.670;2023-04-25T12:00:21;11.40;99.90
15481;DHT22;7842;50.904;6.670;2023-04-25T12:10:14;12.00;99.90
15481;DHT22;7842;50.904;6.670;2023-04-25T12:12:45;12.00;99.90
15481;DHT22;7842;50.904;6.670;2023-04-25T12:20:12;12.00;99.90
15481;DHT22;7842;50.904;6.670;2023-04-25T12:22:38;12.00;99.90
15481;DHT22;7842;50.904;6.670;2023-04-25T12:25:06;12.00;99.90
15481;DHT22;7842;50.904;6.670;2023-04-25T12:29:59;12.30;99.90
15481;DHT22;7842;50.904;6.670;2023-04-25T12:37:18;11.90;99.90
15481;DHT22;7842;50.904;6.670;2023-04-25T12:56:56;10.70;99.90
15481;DHT22;7842;50.904;6.670;2023-04-25T12:59:22;11.70;99.90
15481;DHT22;7842;50.904;6.670;2023-04-25T13:01:51;10.50;99.90
15481;DHT22;7842;50.904;6.670;2023-04-25T13:04:16;11.40;99.90
15481;DHT22;7842;50.904;6.670;2023-04-25T13:06:42;10.40;99.90
15481;DHT22;7842;50.904;6.670;2023-04-25T13:14:01;10.30;99.90
15481;DHT22;7842;50.904;6.670;2023-04-25T13:16:27;10.20;99.90
15481;DHT22;7842;50.904;6.670;2023-04-25T13:21:18;10.60;99.90
15481;DHT22;7842;50.904;6.670;2023-04-25T13:23:44;10.60;99.90
15481;DHT22;7842;50.904;6.670;2023-04-25T13:26:14;10.80;99.90
15481;DHT22;7842;50.904;6.670;2023-04-25T13:36:01;11.40;99.90
15481;DHT22;7842;50.904;6.670;2023-04-25T13:38:27;11.40;99.90
15481;DHT22;7842;50.904;6.670;2023-04-25T13:43:21;11.40;99.90
15481;DHT22;7842;50.904;6.670;2023-04-25T13:45:48;11.30;99.90
15481;DHT22;7842;50.904;6.670;2023-04-25T14:22:31;10.60;99.90
15481;DHT22;7842;50.904;6.670;2023-04-25T14:27:23;10.70;99.90
15481;DHT22;7842;50.904;6.670;2023-04-25T14:29:49;10.70;99.90
15481;DHT22;7842;50.904;6.670;2023-04-25T14:32:14;10.60;99.90
15481;DHT22;7842;50.904;6.670;2023-04-25T14:34:40;10.60;99.90
15481;DHT22;7842;50.904;6.670;2023-04-25T14:37:06;10.80;99.90
15481;DHT22;7842;50.904;6.670;2023-04-25T14:49:17;11.10;99.90
15481;DHT22;7842;50.904;6.670;2023-04-25T14:59:02;11.00;99.90
15481;DHT22;7842;50.904;6.670;2023-04-25T15:30:47;11.80;99.90
15481;DHT22;7842;50.904;6.670;2023-04-25T15:57:41;12.30;99.90
15481;DHT22;7842;50.904;6.670;2023-04-25T17:50:07;10.60;99.90
15481;DHT22;7842;50.904;6.670;2023-04-25T17:52:37;10.50;99.90
15481;DHT22;7842;50.904;6.670;2023-04-25T17:55:06;10.40;99.90
15481;DHT22;7842;50.904;6.670;2023-04-25T18:05:03;10.10;99.90
15481;DHT22;7842;50.904;6.670;2023-04-25T18:07:35;10.00;99.90
15481;DHT22;7842;50.904;6.670;2023-04-25T18:12:32;9.90;99.90
15481;DHT22;7842;50.904;6.670;2023-04-25T18:24:45;9.70;99.90
15481;DHT22;7842;50.904;6.670;2023-04-25T18:29:42;9.60;99.90
15481;DHT22;7842;50.904;6.670;2023-04-25T18:54:10;9.00;99.90
15481;DHT22;7842;50.904;6.670;2023-04-25T19:01:31;8.90;99.90
15481;DHT22;7842;50.904;6.670;2023-04-25T19:08:55;8.80;99.90
15481;DHT22;7842;50.904;6.670;2023-04-25T19:13:48;8.70;99.90
15481;DHT22;7842;50.904;6.670;2023-04-25T19:18:47;8.70;99.90
15481;DHT22;7842;50.904;6.670;2023-04-25T19:31:00;8.70;99.90
15481;DHT22;7842;50.904;6.670;2023-04-25T19:35:55;8.70;99.90
15481;DHT22;7842;50.904;6.670;2023-04-25T19:40:47;8.40;99.90
15481;DHT22;7842;50.904;6.670;2023-04-25T19:48:05;8.30;99.90
15481;DHT22;7842;50.904;6.670;2023-04-25T20:02:49;8.20;99.90
15481;DHT22;7842;50.904;6.670;2023-04-25T20:10:09;8.10;99.90
15481;DHT22;7842;50.904;6.670;2023-04-25T20:12:37;8.10;99.90
15481;DHT22;7842;50.904;6.670;2023-04-25T20:19:57;8.00;99.90
15481;DHT22;7842;50.904;6.670;2023-04-25T20:24:50;7.90;99.90
15481;DHT22;7842;50.904;6.670;2023-04-25T20:27:18;7.90;99.90
15481;DHT22;7842;50.904;6.670;2023-04-25T20:29:44;7.90;99.90
15481;DHT22;7842;50.904;6.670;2023-04-25T20:37:02;7.90;99.90
15481;DHT22;7842;50.904;6.670;2023-04-25T20:41:54;8.00;99.90
15481;DHT22;7842;50.904;6.670;2023-04-25T20:44:20;7.90;99.90
15481;DHT22;7842;50.904;6.670;2023-04-25T20:54:06;7.90;99.90
15481;DHT22;7842;50.904;6.670;2023-04-25T21:06:19;7.90;99.90
15481;DHT22;7842;50.904;6.670;2023-04-25T21:11:11;7.80;99.90
15481;DHT22;7842;50.904;6.670;2023-04-25T21:18:29;7.80;99.90
15481;DHT22;7842;50.904;6.670;2023-04-25T21:30:42;7.70;99.90
15481;DHT22;7842;50.904;6.670;2023-04-25T21:33:07;7.70;99.90
15481;DHT22;7842;50.904;6.670;2023-04-25T21:47:44;7.80;99.90
15481;DHT22;7842;50.904;6.670;2023-04-25T22:02:21;7.70;99.90
15481;DHT22;7842;50.904;6.670;2023-04-25T22:14:32;7.60;99.90
15481;DHT22;7842;50.904;6.670;2023-04-25T22:21:52;7.50;99.90
15481;DHT22;7842;50.904;6.670;2023-04-25T22:36:31;7.20;99.90
15481;DHT22;7842;50.904;6.670;2023-04-25T22:43:49;7.10;99.90
15481;DHT22;7842;50.904;6.670;2023-04-25T23:08:22;6.80;99.90
15481;DHT22;7842;50.904;6.670;2023-04-25T23:18:07;6.70;99.90
15481;DHT22;7842;50.904;6.670;2023-04-25T23:20:33;6.70;99.90
15481;DHT22;7842;50.904;6.670;2023-04-25T23:30:17;6.50;99.90
15481;DHT22;7842;50.904;6.670;2023-04-25T23:32:43;6.50;99.90
15481;DHT22;7842;50.904;6.670;2023-04-25T23:40:04;6.40;99.90
15481;DHT22;7842;50.904;6.670;2023-04-25T23:52:18;6.00;99.90
15481;DHT22;7842;50.904;6.670;2023-04-25T23:54:44;5.90;99.90
15481;DHT22;7842;50.904;6.670;2023-04-25T23:59:36;5.80;99.90
